Time;durP1;ratioP1;P1;durP2;ratioP2;P2;SDS_P1;SDS_P2;PMS_P1;PMS_P2;Temp;Humidity;BMP_temperature;BMP_pressure;BME280_temperature;BME280_humidity;BME280_pressure;Samples;Min_cycle;Max_cycle;Signal;HPM_P1;HPM_P2
2021/08/11 00:02:17;;;;;;;4.88;4.00;;;;;;;21.49;66.66;95928.19;4971561;28;20766;-88
2021/08/11 00:04:43;;;;;;;7.13;4.30;;;;;;;21.52;66.27;95926.94;4971178;28;20202;-88
2021/08/11 00:07:10;;;;;;;5.18;4.47;;;;;;;21.51;66.32;95927.97;4972346;28;20318;-87
2021/08/11 00:09:37;;;;;;;6.90;4.38;;;;;;;21.43;66.82;95923.91;4990323;28;20237;-87
2021/08/11 00:12:06;;;;;;;8.25;4.38;;;;;;;21.40;66.64;95931.41;4990542;28;20298;-88
2021/08/11 00:14:33;;;;;;;5.35;4.32;;;;;;;21.43;66.04;95941.44;4990784;28;20744;-88
2021/08/11 00:16:59;;;;;;;6.40;4.32;;;;;;;21.40;66.92;95950.56;4991093;28;20476;-88
2021/08/11 00:19:30;;;;;;;5.60;4.53;;;;;;;21.35;66.66;95942.63;4991207;28;20231;-88
2021/08/11 00:21:57;;;;;;;5.53;4.43;;;;;;;21.41;66.83;95943.50;4991348;28;20212;-88
2021/08/11 00:24:23;;;;;;;5.32;4.63;;;;;;;21.39;66.76;95951.59;4990386;28;20663;-88
2021/08/11 00:26:49;;;;;;;4.97;4.28;;;;;;;21.47;66.17;95953.03;4991144;28;20199;-88
2021/08/11 00:29:16;;;;;;;4.38;3.95;;;;;;;21.50;66.04;95955.19;4991019;28;20228;-88
2021/08/11 00:31:42;;;;;;;7.13;4.28;;;;;;;21.52;65.52;95967.03;4988723;28;20211;-88
2021/08/11 00:34:09;;;;;;;5.22;4.00;;;;;;;21.50;64.57;95969.09;4971319;28;20200;-87
2021/08/11 00:36:36;;;;;;;4.65;4.15;;;;;;;21.53;64.46;95975.69;4971219;28;20208;-88
2021/08/11 00:39:03;;;;;;;6.38;3.95;;;;;;;21.52;64.47;95966.25;4971833;28;20231;-87
2021/08/11 00:41:30;;;;;;;4.38;3.97;;;;;;;21.57;64.24;95959.25;4971856;28;20209;-88
2021/08/11 00:43:56;;;;;;;4.63;3.92;;;;;;;21.56;64.79;95949.78;4971650;28;20208;-87
2021/08/11 00:46:22;;;;;;;5.70;3.90;;;;;;;21.55;65.29;95948.19;4991657;28;20199;-88
2021/08/11 00:48:50;;;;;;;4.68;4.25;;;;;;;21.36;65.85;95942.38;4990860;28;20604;-89
2021/08/11 00:51:16;;;;;;;5.22;4.03;;;;;;;21.35;65.98;95940.00;4989577;28;20214;-88
2021/08/11 00:53:48;;;;;;;4.40;4.00;;;;;;;21.35;65.97;95940.81;4990349;28;20203;-88
2021/08/11 00:56:18;;;;;;;4.32;3.67;;;;;;;21.33;66.04;95934.22;4991090;28;20203;-88
2021/08/11 00:58:46;;;;;;;6.18;3.80;;;;;;;21.32;66.06;95938.66;4990518;28;20587;-88
2021/08/11 01:01:12;;;;;;;5.35;3.90;;;;;;;21.38;66.42;95939.50;4990579;28;20199;-87
2021/08/11 01:03:39;;;;;;;5.07;3.95;;;;;;;21.36;66.60;95941.56;4990495;28;20577;-87
2021/08/11 01:06:06;;;;;;;4.78;3.60;;;;;;;21.36;66.24;95941.56;5000476;28;20234;-87
2021/08/11 01:08:33;;;;;;;5.85;3.55;;;;;;;21.29;66.47;95954.03;4991009;28;20223;-87
2021/08/11 01:11:02;;;;;;;4.45;3.70;;;;;;;21.31;66.09;95960.63;4990599;28;20214;-88
2021/08/11 01:13:29;;;;;;;5.78;4.00;;;;;;;21.35;66.00;95956.53;4990086;28;20219;-87
2021/08/11 01:15:56;;;;;;;5.78;3.88;;;;;;;21.40;65.89;95962.84;4990309;28;20198;-88
2021/08/11 01:18:22;;;;;;;7.05;3.88;;;;;;;21.47;65.71;95963.53;4990213;28;20206;-88
2021/08/11 01:20:58;;;;;;;4.35;3.58;;;;;;;21.50;66.07;95957.81;4990011;28;20223;-88
2021/08/11 01:23:29;;;;;;;5.88;4.03;;;;;;;21.40;66.03;95968.91;4989979;28;20702;-87
2021/08/11 01:26:06;;;;;;;4.20;3.80;;;;;;;21.41;65.48;95969.69;4990912;28;20738;-87
2021/08/11 01:28:53;;;;;;;5.20;3.72;;;;;;;21.29;66.53;95967.94;4990159;28;20552;-87
2021/08/11 01:31:24;;;;;;;5.03;3.60;;;;;;;21.21;66.66;95963.06;4989549;28;20295;-88
2021/08/11 01:34:06;;;;;;;4.10;3.50;;;;;;;21.15;67.15;95960.56;4970628;28;20200;-88
2021/08/11 01:36:39;;;;;;;3.90;3.40;;;;;;;21.16;67.45;95954.28;4970601;28;20212;-88
2021/08/11 01:39:11;;;;;;;4.00;3.50;;;;;;;21.20;66.68;95945.75;4970726;28;20275;-87
2021/08/11 01:41:44;;;;;;;4.03;3.63;;;;;;;21.22;66.53;95956.00;4970741;28;20208;-87
2021/08/11 01:44:11;;;;;;;6.95;3.70;;;;;;;21.17;67.05;95967.13;4972353;28;20647;-87
2021/08/11 01:46:42;;;;;;;4.90;3.67;;;;;;;21.20;66.27;95965.91;4990411;28;20207;-88
2021/08/11 01:49:14;;;;;;;5.32;3.60;;;;;;;21.19;66.35;95962.47;4989914;28;20227;-87
2021/08/11 01:51:45;;;;;;;4.75;3.60;;;;;;;21.22;66.26;95958.59;4990471;28;20210;-87
2021/08/11 01:54:13;;;;;;;4.40;3.50;;;;;;;21.21;66.01;95957.00;4989872;28;20206;-87
2021/08/11 01:56:42;;;;;;;5.20;3.20;;;;;;;21.20;66.44;95968.53;4990140;28;20295;-88
2021/08/11 01:59:10;;;;;;;3.80;3.40;;;;;;;21.25;66.15;95960.75;4990150;28;20219;-88
2021/08/11 02:01:38;;;;;;;4.68;3.20;;;;;;;21.23;66.22;95965.44;4989872;28;20200;-88
2021/08/11 02:04:06;;;;;;;3.63;3.17;;;;;;;21.25;65.91;95951.09;4991121;28;20211;-87
2021/08/11 02:06:35;;;;;;;4.30;3.90;;;;;;;21.22;65.75;95948.94;4992647;28;20593;-87
2021/08/11 02:09:03;;;;;;;5.72;3.40;;;;;;;21.20;65.78;95950.97;4992990;28;20227;-87
2021/08/11 02:11:37;;;;;;;4.00;3.60;;;;;;;21.13;66.11;95949.53;4992967;28;20663;-88
2021/08/11 02:14:04;;;;;;;4.03;3.58;;;;;;;21.09;66.27;95962.28;4992925;28;20203;-88
2021/08/11 02:16:31;;;;;;;7.32;4.10;;;;;;;21.08;65.85;95952.03;4992795;28;20200;-88
2021/08/11 02:18:58;;;;;;;3.85;3.50;;;;;;;21.07;65.81;95947.81;4993007;28;20219;-88
2021/08/11 02:21:24;;;;;;;5.75;3.50;;;;;;;20.95;67.01;95945.25;4993112;28;20238;-87
2021/08/11 02:23:52;;;;;;;5.55;3.63;;;;;;;20.89;66.68;95952.19;4992885;28;20240;-87
2021/08/11 02:26:20;;;;;;;5.13;3.50;;;;;;;20.83;67.24;95955.75;4993193;28;20200;-88
2021/08/11 02:28:59;;;;;;;4.45;3.78;;;;;;;20.83;67.39;95953.13;4993462;28;20250;-88
2021/08/11 02:31:34;;;;;;;4.32;3.78;;;;;;;20.79;67.67;95953.81;4993228;28;20613;-87
2021/08/11 02:34:07;;;;;;;5.50;3.80;;;;;;;20.75;67.44;95961.34;4973055;28;20215;-88
2021/08/11 02:36:43;;;;;;;5.15;3.80;;;;;;;20.69;67.90;95962.25;4974118;28;20207;-87
2021/08/11 02:39:14;;;;;;;4.40;3.40;;;;;;;20.62;68.77;95961.59;4973979;28;20216;-87
2021/08/11 02:41:48;;;;;;;5.22;3.20;;;;;;;20.68;68.05;95963.28;4973614;28;20234;-87
2021/08/11 02:44:19;;;;;;;4.00;3.22;;;;;;;20.78;67.83;95958.28;4973119;28;20204;-88
2021/08/11 02:46:47;;;;;;;5.15;3.05;;;;;;;20.84;67.43;95957.34;4973269;28;20563;-87
2021/08/11 02:49:22;;;;;;;4.50;3.08;;;;;;;20.79;67.53;95956.44;4973044;28;20232;-88
2021/08/11 02:51:49;;;;;;;3.60;3.30;;;;;;;20.74;67.40;95954.53;4973661;28;20199;-87
2021/08/11 02:54:19;;;;;;;3.65;3.35;;;;;;;20.72;67.69;95956.56;4973145;28;20203;-88
2021/08/11 02:56:49;;;;;;;3.55;3.22;;;;;;;20.76;67.80;95955.09;4973248;28;20688;-87
2021/08/11 02:59:16;;;;;;;4.88;3.55;;;;;;;20.79;67.57;95953.81;4973558;28;20224;-88
2021/08/11 03:01:44;;;;;;;3.60;3.30;;;;;;;20.83;66.90;95962.78;4973712;28;20206;-87
2021/08/11 03:04:11;;;;;;;4.78;3.40;;;;;;;20.79;66.94;95959.03;4972813;28;20214;-88
2021/08/11 03:06:38;;;;;;;4.70;3.33;;;;;;;20.87;66.43;95966.53;4972619;28;20259;-87
2021/08/11 03:09:06;;;;;;;5.47;3.17;;;;;;;20.90;66.13;95959.03;4990189;28;20824;-87
2021/08/11 03:11:35;;;;;;;7.60;3.30;;;;;;;20.89;66.62;95961.88;4992703;28;20290;-87
2021/08/11 03:14:02;;;;;;;3.42;3.08;;;;;;;20.94;66.19;95960.16;4992782;28;20211;-88
2021/08/11 03:16:29;;;;;;;3.83;3.40;;;;;;;20.98;66.04;95956.03;4993018;28;20203;-87
2021/08/11 03:18:56;;;;;;;4.22;3.50;;;;;;;20.98;66.66;95955.22;4991917;28;20227;-87
2021/08/11 03:21:23;;;;;;;4.28;3.50;;;;;;;20.94;66.95;95960.16;4992476;28;20207;-88
2021/08/11 03:23:49;;;;;;;6.65;3.35;;;;;;;20.93;67.06;95961.19;4992115;28;20552;-88
2021/08/11 03:26:16;;;;;;;4.93;3.30;;;;;;;20.97;67.33;95954.44;4987182;28;20208;-87
2021/08/11 03:28:44;;;;;;;5.45;3.33;;;;;;;20.93;67.56;95944.69;4986255;28;20848;-88
2021/08/11 03:31:10;;;;;;;4.03;3.63;;;;;;;20.91;66.94;95954.59;4982116;28;20216;-87
2021/08/11 03:33:36;;;;;;;3.58;3.28;;;;;;;20.84;66.78;95943.44;4989689;28;20199;-87
2021/08/11 03:36:03;;;;;;;3.40;3.08;;;;;;;20.80;66.90;95945.72;4977411;28;20204;-87
2021/08/11 03:38:30;;;;;;;5.75;4.13;;;;;;;20.70;67.05;95937.69;4972486;28;20303;-88
2021/08/11 03:40:56;;;;;;;4.85;3.83;;;;;;;20.69;67.84;95938.72;4973373;28;20204;-88
2021/08/11 03:43:23;;;;;;;4.00;3.30;;;;;;;20.64;68.39;95947.25;4989780;28;20227;-87
2021/08/11 03:45:51;;;;;;;4.28;3.47;;;;;;;20.57;68.86;95943.19;4991967;28;20199;-87
2021/08/11 03:48:17;;;;;;;3.90;3.40;;;;;;;20.47;68.69;95946.34;4991763;28;20192;-88
2021/08/11 03:50:44;;;;;;;4.07;3.55;;;;;;;20.41;69.52;95946.47;4991841;28;20227;-87
2021/08/11 03:53:11;;;;;;;5.10;3.50;;;;;;;20.41;69.06;95949.09;4986313;28;20215;-88
2021/08/11 03:55:38;;;;;;;3.55;3.25;;;;;;;20.50;68.73;95948.53;4972719;28;20204;-88
2021/08/11 03:58:05;;;;;;;4.10;3.60;;;;;;;20.45;69.17;95943.19;4983594;28;20675;-88
2021/08/11 04:00:32;;;;;;;3.92;3.55;;;;;;;20.49;69.32;95951.38;4985816;28;20220;-87
2021/08/11 04:03:00;;;;;;;3.78;3.42;;;;;;;20.44;69.19;95946.81;4972162;28;20211;-88
2021/08/11 04:05:27;;;;;;;3.65;3.35;;;;;;;20.34;69.59;95950.00;4971227;28;20264;-87
2021/08/11 04:07:53;;;;;;;6.55;3.53;;;;;;;20.20;70.50;95950.47;4978851;28;20283;-87
2021/08/11 04:10:20;;;;;;;3.40;2.85;;;;;;;20.23;70.19;95955.22;4992968;28;20263;-88
2021/08/11 04:12:46;;;;;;;3.63;3.33;;;;;;;20.23;70.11;95953.38;5011648;28;20330;-87
2021/08/11 04:15:13;;;;;;;3.60;3.30;;;;;;;20.28;69.85;95957.94;5011873;28;20199;-87
2021/08/11 04:17:39;;;;;;;3.53;3.22;;;;;;;20.35;69.64;95963.88;5012978;28;20202;-87
2021/08/11 04:20:10;;;;;;;3.67;3.38;;;;;;;20.26;70.89;95954.75;5012862;28;20249;-87
2021/08/11 04:22:36;;;;;;;5.85;4.00;;;;;;;20.27;70.62;95962.38;5012075;28;20202;-87
2021/08/11 04:25:04;;;;;;;3.88;3.47;;;;;;;20.29;70.33;95964.75;5011306;28;20210;-86
2021/08/11 04:27:30;;;;;;;4.50;3.58;;;;;;;20.35;69.66;95961.25;5000315;28;20290;-88
2021/08/11 04:29:57;;;;;;;3.63;3.33;;;;;;;20.34;69.86;95968.31;4989279;28;20235;-88
2021/08/11 04:32:23;;;;;;;4.45;3.10;;;;;;;20.28;70.44;95965.78;4989392;28;20204;-88
2021/08/11 04:34:50;;;;;;;3.92;3.60;;;;;;;20.28;70.09;95965.78;4981617;28;20201;-88
2021/08/11 04:37:21;;;;;;;4.68;3.50;;;;;;;20.25;70.48;95974.09;4970295;28;20207;-87
2021/08/11 04:39:48;;;;;;;5.50;3.40;;;;;;;20.26;71.07;95967.84;4974119;28;20866;-88
2021/08/11 04:42:14;;;;;;;3.83;3.53;;;;;;;20.34;70.69;95962.28;4987026;28;20287;-88
2021/08/11 04:44:41;;;;;;;5.38;3.60;;;;;;;20.38;70.31;95963.44;4980702;28;20199;-88
2021/08/11 04:47:07;;;;;;;4.40;4.03;;;;;;;20.45;70.15;95960.69;4981687;28;20290;-88
2021/08/11 04:49:34;;;;;;;4.25;3.67;;;;;;;20.53;69.93;95962.97;4978873;28;20234;-89
2021/08/11 04:52:00;;;;;;;7.03;3.72;;;;;;;20.61;69.18;95966.00;4970633;28;20204;-89
2021/08/11 04:54:29;;;;;;;3.67;3.38;;;;;;;20.75;68.36;95965.78;4988851;28;20290;-88
2021/08/11 04:56:55;;;;;;;12.65;11.38;;;;;;;20.79;68.10;95970.31;4988675;28;20218;-88
2021/08/11 04:59:22;;;;;;;15.68;14.07;;;;;;;20.81;68.13;95968.25;4973721;28;20224;-88
2021/08/11 05:01:48;;;;;;;6.47;5.07;;;;;;;20.85;68.08;95960.75;4980762;28;20199;-88
2021/08/11 05:04:15;;;;;;;7.30;4.55;;;;;;;20.86;68.62;95968.38;4989449;28;20203;-88
2021/08/11 05:06:41;;;;;;;4.13;3.80;;;;;;;20.91;67.61;95973.72;4988957;28;20231;-88
2021/08/11 05:09:12;;;;;;;5.43;3.60;;;;;;;20.99;67.28;95970.72;4973221;28;20234;-88
2021/08/11 05:11:45;;;;;;;6.40;3.42;;;;;;;21.08;66.39;95968.53;4975185;28;20235;-89
2021/08/11 05:14:12;;;;;;;4.43;4.03;;;;;;;21.13;66.25;95967.84;4987131;28;20202;-88
2021/08/11 05:16:38;;;;;;;4.55;3.70;;;;;;;21.14;66.59;95964.19;4988986;28;20265;-88
2021/08/11 05:19:05;;;;;;;5.20;3.75;;;;;;;21.14;66.31;95967.63;4988750;28;20223;-88
2021/08/11 05:21:32;;;;;;;6.07;3.67;;;;;;;21.14;66.55;95972.84;4989432;28;20694;-89
2021/08/11 05:24:45;;;;;;;4.07;3.67;;;;;;;21.19;66.16;95965.06;4994659;28;20203;-88
2021/08/11 05:41:04;;;;;;;3.92;3.60;;;;;;;21.44;65.77;95974.47;4837482;29;20638;-89
2021/08/11 06:35:19;;;;;;;3.78;3.25;;;;;;;22.80;58.37;95981.09;4916243;29;20740;-89
2021/08/11 06:41:26;;;;;;;4.53;2.78;;;;;;;22.72;54.71;95978.84;4830346;29;20243;-89
2021/08/11 06:44:14;;;;;;;4.15;2.92;;;;;;;22.71;55.59;95980.66;4901266;29;20258;-90
2021/08/11 06:46:41;;;;;;;4.18;2.90;;;;;;;22.74;56.01;95979.38;4948736;28;20704;-89
2021/08/11 06:49:10;;;;;;;6.45;3.05;;;;;;;22.84;56.38;95979.56;4981335;28;20702;-88
2021/08/11 06:51:42;;;;;;;4.82;2.80;;;;;;;23.00;55.95;95983.16;5009848;28;20329;-89
2021/08/11 06:54:12;;;;;;;7.35;2.90;;;;;;;23.12;56.23;95983.03;5009505;28;20207;-90
2021/08/11 06:56:41;;;;;;;4.93;2.88;;;;;;;23.13;55.65;95987.25;5010022;28;20213;-89
2021/08/11 06:59:09;;;;;;;3.13;2.83;;;;;;;23.15;55.63;95988.59;5010288;28;20563;-89
2021/08/11 07:01:40;;;;;;;4.35;2.83;;;;;;;23.21;55.05;95990.25;5009576;28;20282;-89
2021/08/11 07:04:09;;;;;;;4.95;3.35;;;;;;;23.30;55.29;95987.97;5009055;28;20261;-88
2021/08/11 07:06:39;;;;;;;4.95;3.25;;;;;;;23.32;55.59;95991.94;5011350;28;20231;-89
2021/08/11 07:09:13;;;;;;;4.50;3.08;;;;;;;23.37;55.67;95978.84;5009310;28;20284;-89
2021/08/11 07:12:38;;;;;;;3.72;2.90;;;;;;;23.51;54.76;95981.09;5009374;28;20215;-89
2021/08/11 07:15:53;;;;;;;5.35;3.20;;;;;;;23.52;54.89;95986.13;4915847;29;20202;-89
2021/08/11 07:19:20;;;;;;;4.30;2.75;;;;;;;23.63;54.81;95987.84;4985668;28;20290;-90
2021/08/11 07:25:33;;;;;;;4.25;3.08;;;;;;;23.68;52.43;95995.75;4904907;29;20209;-89
2021/08/11 07:28:14;;;;;;;3.38;2.90;;;;;;;23.72;53.69;95994.22;4947971;28;20659;-88
2021/08/11 07:31:03;;;;;;;2.90;2.63;;;;;;;23.87;51.22;95995.38;4989829;28;20223;-86
2021/08/11 07:41:21;;;;;;;4.53;2.53;;;;;;;24.01;51.10;95996.59;4987296;28;20593;-90
2021/08/11 07:43:53;;;;;;;3.38;2.22;;;;;;;24.14;51.82;95996.16;4989270;28;20733;-90
2021/08/11 07:46:22;;;;;;;2.75;2.55;;;;;;;24.32;50.43;95997.63;4996457;28;20285;-89
2021/08/11 07:48:54;;;;;;;2.75;2.40;;;;;;;24.37;49.53;95992.41;5008900;28;20206;-91
2021/08/11 07:51:40;;;;;;;2.90;2.45;;;;;;;24.49;50.35;95990.38;5008561;28;20226;-89
2021/08/11 07:54:07;;;;;;;2.60;2.30;;;;;;;24.55;49.61;95992.00;4991304;28;20202;-89
2021/08/11 07:56:39;;;;;;;3.03;2.47;;;;;;;24.70;50.06;95993.91;5008983;28;20239;-89
2021/08/11 07:59:17;;;;;;;2.92;2.38;;;;;;;24.84;47.99;95992.41;5009367;28;20258;-89
2021/08/11 08:01:44;;;;;;;3.25;2.60;;;;;;;25.02;47.85;95992.00;5022376;28;20190;-88
2021/08/11 08:04:11;;;;;;;3.80;2.72;;;;;;;25.02;49.33;95992.00;5028579;28;20202;-88
2021/08/11 08:06:40;;;;;;;5.22;2.65;;;;;;;25.13;48.11;95988.34;5011441;28;20732;-88
2021/08/11 08:09:07;;;;;;;5.72;2.60;;;;;;;25.31;47.18;95997.63;5008584;28;20229;-88
2021/08/11 08:11:35;;;;;;;2.30;2.08;;;;;;;25.44;47.45;95998.97;5008438;28;20257;-88
2021/08/11 08:14:02;;;;;;;4.30;2.58;;;;;;;25.47;46.93;95998.47;5008510;28;20256;-89
2021/08/11 08:16:32;;;;;;;2.35;2.15;;;;;;;25.57;46.61;96009.06;5008873;28;20199;-89
2021/08/11 08:19:09;;;;;;;2.22;2.03;;;;;;;25.53;46.06;96004.56;5008903;28;20269;-88
2021/08/11 08:21:37;;;;;;;3.80;2.17;;;;;;;25.55;45.38;96003.25;5001601;28;20210;-88
2021/08/11 08:24:04;;;;;;;2.35;2.05;;;;;;;25.64;45.95;96004.34;5003530;28;20544;-89
2021/08/11 08:26:31;;;;;;;3.15;2.35;;;;;;;25.68;45.79;96002.75;5002385;28;20686;-89
2021/08/11 08:28:59;;;;;;;2.80;2.47;;;;;;;25.84;45.46;96008.06;5001232;28;20210;-89
2021/08/11 08:31:30;;;;;;;4.07;2.55;;;;;;;25.84;44.50;95992.22;5007836;28;20694;-89
2021/08/11 08:33:57;;;;;;;2.80;2.50;;;;;;;26.05;44.00;95996.47;5008821;28;20203;-89
2021/08/11 08:36:24;;;;;;;5.15;2.55;;;;;;;26.16;44.90;95992.78;5009158;28;20199;-89
2021/08/11 08:39:10;;;;;;;3.53;2.10;;;;;;;26.27;44.95;95999.63;5009095;28;20195;-88
2021/08/11 08:41:39;;;;;;;3.75;2.35;;;;;;;26.11;44.49;95993.56;4997870;28;20284;-89
2021/08/11 08:44:08;;;;;;;2.40;2.20;;;;;;;26.29;43.64;95997.56;4989783;28;20211;-90
2021/08/11 08:46:39;;;;;;;2.42;2.22;;;;;;;26.41;45.92;95994.63;4998548;28;20199;-88
2021/08/11 08:49:06;;;;;;;2.40;2.08;;;;;;;26.70;46.41;95992.19;5008353;28;20283;-89
2021/08/11 08:51:43;;;;;;;2.63;2.30;;;;;;;26.94;44.82;95993.19;5008271;28;20896;-89
2021/08/11 08:54:18;;;;;;;3.15;2.20;;;;;;;26.85;43.60;95986.88;5008152;28;20285;-89
2021/08/11 08:56:48;;;;;;;2.42;2.22;;;;;;;26.87;43.83;95987.41;5008282;28;20194;-89
2021/08/11 08:59:18;;;;;;;4.13;2.38;;;;;;;27.08;43.97;95986.28;5001548;28;20215;-89
2021/08/11 09:01:48;;;;;;;2.78;2.17;;;;;;;27.10;44.75;95986.03;4988910;28;20298;-89
2021/08/11 09:04:17;;;;;;;4.22;2.60;;;;;;;27.17;43.25;95983.84;4988054;28;20658;-88
2021/08/11 09:06:48;;;;;;;3.00;2.30;;;;;;;27.23;45.28;95992.56;4996963;28;20230;-89
2021/08/11 09:09:48;;;;;;;2.85;2.60;;;;;;;27.39;45.71;95991.44;5028663;23;20640;-88
2021/08/11 09:12:16;;;;;;;3.00;2.53;;;;;;;27.45;43.70;95985.84;5067832;28;20220;-89
2021/08/11 09:26:44;;;;;;;3.65;2.60;;;;;;;27.90;41.85;95978.72;5027765;28;20873;-91
2021/08/11 09:29:11;;;;;;;4.57;2.70;;;;;;;27.90;42.90;95980.56;5033142;28;20232;-89
2021/08/11 09:31:53;;;;;;;4.97;2.60;;;;;;;27.93;42.86;95980.00;5032396;28;20573;-90
2021/08/11 09:34:22;;;;;;;3.15;2.85;;;;;;;27.73;41.77;95968.50;5030557;28;20960;-90
2021/08/11 09:37:06;;;;;;;3.58;2.90;;;;;;;27.90;41.77;95981.34;5032665;28;20546;-91
2021/08/11 09:43:00;;;;;;;3.20;2.92;;;;;;;28.28;41.51;95973.66;5012393;28;20202;-91
2021/08/11 09:46:00;;;;;;;4.28;3.15;;;;;;;28.38;41.76;95974.34;5004513;28;20222;-91
2021/08/11 09:51:28;;;;;;;3.47;3.00;;;;;;;28.70;40.21;95968.44;5224461;23;20284;-89
2021/08/11 09:54:28;;;;;;;4.53;2.95;;;;;;;28.70;39.56;95968.44;5030400;28;20224;-90
2021/08/11 10:06:54;;;;;;;5.07;3.40;;;;;;;28.92;39.93;95970.63;4927326;28;20232;-87
2021/08/11 10:09:26;;;;;;;4.00;3.60;;;;;;;29.04;39.70;95963.06;5016492;28;20226;-88
2021/08/11 10:11:54;;;;;;;3.85;3.30;;;;;;;29.02;39.86;95967.88;5014748;28;20215;-88
2021/08/11 10:14:22;;;;;;;4.00;3.35;;;;;;;29.09;39.66;95964.84;5013833;28;20257;-89
2021/08/11 10:16:50;;;;;;;3.92;3.40;;;;;;;29.29;39.91;95964.56;5018388;28;20278;-87
2021/08/11 10:19:17;;;;;;;3.50;3.22;;;;;;;29.44;40.25;95964.41;5017134;28;20247;-87
2021/08/11 10:21:48;;;;;;;3.90;3.60;;;;;;;29.56;40.21;95969.28;5015583;28;20195;-88
2021/08/11 10:24:17;;;;;;;3.65;3.35;;;;;;;29.61;39.02;95965.78;5013620;28;20203;-87
2021/08/11 10:26:47;;;;;;;4.85;3.55;;;;;;;29.61;38.96;95963.13;5012732;28;20195;-88
2021/08/11 10:29:14;;;;;;;4.47;3.83;;;;;;;29.68;38.32;95969.63;5014142;28;20290;-87
2021/08/11 10:31:41;;;;;;;3.80;3.50;;;;;;;29.72;39.26;95953.94;5016802;28;20596;-88
2021/08/11 10:34:11;;;;;;;3.88;3.45;;;;;;;29.85;39.15;95950.53;5000573;28;20199;-87
2021/08/11 10:36:42;;;;;;;4.20;3.38;;;;;;;29.75;38.59;95954.13;4992857;28;20578;-89
2021/08/11 10:39:09;;;;;;;3.53;3.25;;;;;;;29.73;38.60;95953.63;4992263;28;20215;-88
2021/08/11 10:41:38;;;;;;;3.42;3.13;;;;;;;29.71;39.55;95955.00;4991488;28;20274;-88
2021/08/11 10:44:06;;;;;;;5.00;3.40;;;;;;;29.78;39.08;95950.91;4992515;28;20196;-87
2021/08/11 10:46:37;;;;;;;3.63;3.30;;;;;;;29.85;39.06;95950.53;4994342;28;20206;-87
2021/08/11 10:49:08;;;;;;;3.45;3.25;;;;;;;29.90;39.35;95953.09;4993016;28;20883;-88
2021/08/11 10:51:39;;;;;;;3.53;3.22;;;;;;;29.96;39.68;95949.31;4992298;28;20223;-88
2021/08/11 10:54:10;;;;;;;3.60;3.30;;;;;;;29.84;38.78;95951.59;5006700;28;20215;-90
2021/08/11 10:56:46;;;;;;;4.28;3.47;;;;;;;29.74;38.91;95955.22;5012517;28;20199;-88
2021/08/11 10:59:44;;;;;;;3.75;3.45;;;;;;;29.58;40.18;95950.44;5011141;28;20222;-86
2021/08/11 11:02:53;;;;;;;3.67;3.38;;;;;;;29.23;40.05;95949.81;5012049;28;20212;-89
2021/08/11 11:06:00;;;;;;;3.90;3.35;;;;;;;29.35;39.64;95947.53;4994025;28;20225;-88
2021/08/11 11:08:47;;;;;;;3.58;3.28;;;;;;;29.55;39.44;95952.59;5001072;28;20215;-89
2021/08/11 11:15:11;;;;;;;4.20;3.65;;;;;;;29.56;38.60;95950.72;4988589;28;20203;-88
2021/08/11 11:18:40;;;;;;;;;;;;;;;;;;;;;
2021/08/11 11:21:43;;;;;;;3.53;3.22;;;;;;;29.57;40.31;95941.69;4929993;29;20212;-89
2021/08/11 11:24:43;;;;;;;3.95;3.63;;;;;;;29.49;39.89;95940.44;4912320;29;20209;-88
2021/08/11 11:27:52;;;;;;;4.72;4.03;;;;;;;29.25;39.00;95944.25;4928926;29;20208;-88
2021/08/11 11:30:48;;;;;;;4.97;3.45;;;;;;;29.14;39.61;95943.56;5010338;28;20288;-88
2021/08/11 11:33:32;;;;;;;4.40;4.00;;;;;;;29.06;41.24;95937.03;5011183;28;20232;-88
2021/08/11 11:36:25;;;;;;;3.97;3.67;;;;;;;28.97;41.23;95935.31;5013304;28;20756;-88
2021/08/11 11:39:20;;;;;;;4.45;3.60;;;;;;;28.91;40.54;95939.09;4976770;28;20207;-88
2021/08/11 11:42:22;;;;;;;4.28;3.50;;;;;;;28.86;40.49;95934.66;4976308;28;20199;-88
2021/08/11 11:45:01;;;;;;;6.00;4.45;;;;;;;28.93;40.79;95934.28;5011638;28;20206;-88
2021/08/11 11:48:14;;;;;;;4.22;3.88;;;;;;;29.16;39.66;95931.59;5012325;28;20229;-88
2021/08/11 11:50:49;;;;;;;4.57;3.90;;;;;;;29.36;39.45;95937.72;5012613;28;20262;-88
2021/08/11 11:53:25;;;;;;;4.85;3.80;;;;;;;29.56;38.97;95934.78;5012418;28;20265;-87
2021/08/11 11:55:52;;;;;;;4.50;4.10;;;;;;;29.67;40.71;95933.53;5011709;28;20329;-88
2021/08/11 11:58:21;;;;;;;4.25;3.95;;;;;;;29.80;41.22;95924.88;5005602;28;20203;-88
2021/08/11 12:01:00;;;;;;;4.10;3.70;;;;;;;30.05;40.50;95930.84;5003208;28;20361;-88
2021/08/11 12:03:50;;;;;;;4.20;3.65;;;;;;;30.00;38.96;95930.97;4994823;28;20299;-88
2021/08/11 12:06:43;;;;;;;4.40;3.70;;;;;;;30.11;38.29;95933.13;4998977;28;20225;-88
2021/08/11 12:09:10;;;;;;;5.00;3.97;;;;;;;30.10;38.32;95928.13;5010284;28;20253;-88
2021/08/11 12:11:45;;;;;;;5.13;4.28;;;;;;;30.09;37.58;95931.84;5010271;28;20207;-89
2021/08/11 12:14:33;;;;;;;5.47;4.50;;;;;;;29.89;38.42;95928.41;5010303;28;20194;-88
2021/08/11 12:17:06;;;;;;;4.45;4.05;;;;;;;29.93;38.71;95931.28;5011747;28;20570;-88
2021/08/11 12:19:38;;;;;;;4.30;3.88;;;;;;;29.84;39.37;95920.53;5011733;28;20273;-88
2021/08/11 12:22:29;;;;;;;4.32;3.83;;;;;;;29.82;39.36;95917.41;5010688;28;20566;-88
2021/08/11 12:25:06;;;;;;;4.57;4.28;;;;;;;29.82;38.79;95924.56;5007117;28;20202;-89
2021/08/11 12:27:38;;;;;;;4.22;3.83;;;;;;;29.75;39.37;95916.97;5009214;28;20206;-88
2021/08/11 12:30:31;;;;;;;4.93;4.38;;;;;;;29.61;38.35;95918.78;5010244;28;20230;-88
2021/08/11 12:32:58;;;;;;;4.47;4.07;;;;;;;29.84;38.98;95922.41;5009950;28;20849;-88
2021/08/11 12:35:25;;;;;;;4.75;4.35;;;;;;;30.11;37.83;95917.19;5010715;28;20210;-88
2021/08/11 12:37:57;;;;;;;4.85;4.43;;;;;;;30.18;38.07;95919.50;5013115;28;20210;-88
2021/08/11 12:40:35;;;;;;;5.47;4.78;;;;;;;30.31;38.21;95910.75;5010631;28;20223;-89
2021/08/11 12:43:08;;;;;;;5.10;4.70;;;;;;;30.38;38.08;95911.16;5011850;28;20730;-87
2021/08/11 12:45:51;;;;;;;5.57;4.55;;;;;;;30.43;37.83;95912.91;5010949;28;20674;-87
2021/08/11 12:48:28;;;;;;;5.03;4.63;;;;;;;30.59;36.97;95910.78;5008614;28;20199;-88
2021/08/11 12:51:05;;;;;;;5.43;4.93;;;;;;;30.58;37.37;95909.22;4994235;28;20238;-88
2021/08/11 12:53:41;;;;;;;4.68;4.28;;;;;;;30.34;36.63;95912.03;5010437;28;20218;-88
2021/08/11 12:56:13;;;;;;;5.43;5.03;;;;;;;30.49;37.12;95912.53;5010763;28;20641;-88
2021/08/11 12:59:05;;;;;;;4.70;4.30;;;;;;;30.56;37.52;95901.53;5010940;28;20230;-88
2021/08/11 13:01:37;;;;;;;4.72;4.32;;;;;;;30.67;37.35;95899.44;4991297;28;20273;-89
2021/08/11 13:04:11;;;;;;;4.95;4.50;;;;;;;30.72;34.69;95888.72;4996194;28;20201;-87
2021/08/11 13:06:42;;;;;;;4.97;4.57;;;;;;;30.70;34.51;95890.88;5008955;28;20253;-88
2021/08/11 13:09:22;;;;;;;5.65;5.05;;;;;;;30.68;34.16;95891.19;4995968;28;20223;-89
2021/08/11 13:12:09;;;;;;;6.38;4.85;;;;;;;30.73;35.59;95901.72;5010523;28;20199;-88
2021/08/11 13:15:10;;;;;;;;;;;;;;;;;;;;;
2021/08/11 13:18:04;;;;;;;5.45;4.95;;;;;;;30.47;34.13;95889.97;5001200;28;20286;-88
2021/08/11 13:20:36;;;;;;;4.72;4.32;;;;;;;30.43;34.30;95886.31;5006635;28;20766;-88
2021/08/11 13:23:06;;;;;;;5.30;4.80;;;;;;;30.48;34.56;95888.91;5003260;28;20698;-87
2021/08/11 13:26:02;;;;;;;5.35;4.82;;;;;;;30.55;34.84;95889.31;4992603;28;20199;-88
2021/08/11 13:31:32;;;;;;;6.47;4.90;;;;;;;30.76;33.61;95881.72;5002075;28;20194;-88
2021/08/11 13:34:07;;;;;;;6.07;4.97;;;;;;;30.88;34.93;95882.00;4989931;28;20750;-88
2021/08/11 13:36:42;;;;;;;7.93;4.95;;;;;;;30.99;35.65;95886.00;4991725;28;20259;-87
2021/08/11 13:39:15;;;;;;;5.40;4.68;;;;;;;31.13;35.29;95891.34;4997794;28;20214;-88
2021/08/11 13:42:12;;;;;;;5.25;4.75;;;;;;;31.03;34.18;95886.22;5010470;28;20229;-88
2021/08/11 13:45:00;;;;;;;6.47;5.25;;;;;;;31.03;34.55;95880.88;5010251;28;20626;-88
2021/08/11 13:50:41;;;;;;;6.57;4.78;;;;;;;30.41;36.17;95883.97;5011294;28;20222;-87
2021/08/11 13:53:23;;;;;;;6.10;4.63;;;;;;;30.53;36.65;95878.97;4998251;28;20629;-87
2021/08/11 13:56:01;;;;;;;5.32;4.70;;;;;;;30.67;38.62;95875.53;5000023;28;20195;-87
2021/08/11 13:58:41;;;;;;;7.60;4.40;;;;;;;30.66;35.83;95873.94;5013895;28;20207;-88
2021/08/11 14:01:24;;;;;;;5.30;4.50;;;;;;;30.80;35.94;95877.38;5014941;28;20206;-87
2021/08/11 14:03:51;;;;;;;4.82;4.43;;;;;;;30.70;36.54;95881.03;5014213;28;20209;-87
2021/08/11 14:06:17;;;;;;;4.72;4.30;;;;;;;30.53;37.19;95884.28;5015682;28;20288;-87